sensor_id;sensor_type;location;lat;lon;timestamp;temperature;humidity
46898;DHT22;32646;50.958;6.258;2022-11-21T00:00:45;6.60;99.90
46898;DHT22;32646;50.958;6.258;2022-11-21T00:03:13;6.60;99.90
46898;DHT22;32646;50.958;6.258;2022-11-21T00:05:44;6.60;99.90
46898;DHT22;32646;50.958;6.258;2022-11-21T00:08:13;6.70;99.90
46898;DHT22;32646;50.958;6.258;2022-11-21T00:10:46;6.60;99.90
46898;DHT22;32646;50.958;6.258;2022-11-21T00:13:14;6.60;99.90
46898;DHT22;32646;50.958;6.258;2022-11-21T00:15:41;6.50;99.90
46898;DHT22;32646;50.958;6.258;2022-11-21T00:18:08;6.50;99.90
46898;DHT22;32646;50.958;6.258;2022-11-21T00:20:35;6.30;99.90
46898;DHT22;32646;50.958;6.258;2022-11-21T00:23:02;6.30;99.90
46898;DHT22;32646;50.958;6.258;2022-11-21T00:25:28;6.20;99.90
46898;DHT22;32646;50.958;6.258;2022-11-21T00:27:55;6.20;99.90
46898;DHT22;32646;50.958;6.258;2022-11-21T00:30:21;6.10;99.90
46898;DHT22;32646;50.958;6.258;2022-11-21T00:32:48;6.20;99.90
46898;DHT22;32646;50.958;6.258;2022-11-21T00:35:14;6.10;99.90
46898;DHT22;32646;50.958;6.258;2022-11-21T00:37:41;6.10;99.90
46898;DHT22;32646;50.958;6.258;2022-11-21T00:40:08;6.10;99.90
46898;DHT22;32646;50.958;6.258;2022-11-21T00:42:35;6.00;99.90
46898;DHT22;32646;50.958;6.258;2022-11-21T00:45:01;6.00;99.90
46898;DHT22;32646;50.958;6.258;2022-11-21T00:47:28;6.00;99.90
46898;DHT22;32646;50.958;6.258;2022-11-21T00:49:54;6.00;99.90
46898;DHT22;32646;50.958;6.258;2022-11-21T00:52:21;6.10;99.90
46898;DHT22;32646;50.958;6.258;2022-11-21T00:54:47;6.10;99.90
46898;DHT22;32646;50.958;6.258;2022-11-21T00:57:14;6.30;99.90
46898;DHT22;32646;50.958;6.258;2022-11-21T00:59:40;6.30;99.90
46898;DHT22;32646;50.958;6.258;2022-11-21T01:02:07;6.30;99.90
46898;DHT22;32646;50.958;6.258;2022-11-21T01:04:34;6.30;99.90
46898;DHT22;32646;50.958;6.258;2022-11-21T01:07:01;6.30;99.90
46898;DHT22;32646;50.958;6.258;2022-11-21T01:09:27;6.20;99.90
46898;DHT22;32646;50.958;6.258;2022-11-21T01:11:55;6.20;99.90
46898;DHT22;32646;50.958;6.258;2022-11-21T01:14:22;6.20;99.90
46898;DHT22;32646;50.958;6.258;2022-11-21T01:16:49;6.20;99.90
46898;DHT22;32646;50.958;6.258;2022-11-21T01:19:15;6.30;99.90
46898;DHT22;32646;50.958;6.258;2022-11-21T01:21:42;6.20;99.90
46898;DHT22;32646;50.958;6.258;2022-11-21T01:24:10;6.10;99.90
46898;DHT22;32646;50.958;6.258;2022-11-21T01:26:37;6.10;99.90
46898;DHT22;32646;50.958;6.258;2022-11-21T01:29:05;6.10;99.90
46898;DHT22;32646;50.958;6.258;2022-11-21T01:31:31;6.00;99.90
46898;DHT22;32646;50.958;6.258;2022-11-21T01:33:59;6.00;99.90
46898;DHT22;32646;50.958;6.258;2022-11-21T01:36:29;5.90;99.90
46898;DHT22;32646;50.958;6.258;2022-11-21T01:38:58;5.90;99.90
46898;DHT22;32646;50.958;6.258;2022-11-21T01:41:34;5.80;99.90
46898;DHT22;32646;50.958;6.258;2022-11-21T01:44:45;5.80;99.90
46898;DHT22;32646;50.958;6.258;2022-11-21T01:46:52;5.80;99.90
46898;DHT22;32646;50.958;6.258;2022-11-21T01:49:24;5.80;99.90
46898;DHT22;32646;50.958;6.258;2022-11-21T01:54:32;5.80;99.90
46898;DHT22;32646;50.958;6.258;2022-11-21T01:59:56;5.80;99.90
46898;DHT22;32646;50.958;6.258;2022-11-21T02:02:28;5.80;99.90
46898;DHT22;32646;50.958;6.258;2022-11-21T02:04:55;5.80;99.90
46898;DHT22;32646;50.958;6.258;2022-11-21T02:07:23;5.80;99.90
46898;DHT22;32646;50.958;6.258;2022-11-21T02:09:54;5.80;99.90
46898;DHT22;32646;50.958;6.258;2022-11-21T02:15:01;5.80;99.90
46898;DHT22;32646;50.958;6.258;2022-11-21T02:17:29;5.80;99.90
46898;DHT22;32646;50.958;6.258;2022-11-21T02:20:09;5.80;99.90
46898;DHT22;32646;50.958;6.258;2022-11-21T02:25:16;5.80;99.90
46898;DHT22;32646;50.958;6.258;2022-11-21T02:27:44;5.80;99.90
46898;DHT22;32646;50.958;6.258;2022-11-21T02:30:11;5.80;99.90
46898;DHT22;32646;50.958;6.258;2022-11-21T02:32:41;5.80;99.90
46898;DHT22;32646;50.958;6.258;2022-11-21T02:35:08;5.70;99.90
46898;DHT22;32646;50.958;6.258;2022-11-21T02:37:35;5.60;99.90
46898;DHT22;32646;50.958;6.258;2022-11-21T02:40:07;5.70;99.90
46898;DHT22;32646;50.958;6.258;2022-11-21T02:42:40;5.80;99.90
46898;DHT22;32646;50.958;6.258;2022-11-21T02:47:52;5.90;99.90
46898;DHT22;32646;50.958;6.258;2022-11-21T02:50:25;5.90;99.90
46898;DHT22;32646;50.958;6.258;2022-11-21T02:52:52;5.90;99.90
46898;DHT22;32646;50.958;6.258;2022-11-21T02:55:19;5.90;99.90
46898;DHT22;32646;50.958;6.258;2022-11-21T02:57:45;5.90;99.90
46898;DHT22;32646;50.958;6.258;2022-11-21T03:00:12;6.00;99.90
46898;DHT22;32646;50.958;6.258;2022-11-21T03:02:42;6.00;99.90
46898;DHT22;32646;50.958;6.258;2022-11-21T03:05:10;5.90;99.90
46898;DHT22;32646;50.958;6.258;2022-11-21T03:07:37;5.90;99.90
46898;DHT22;32646;50.958;6.258;2022-11-21T03:10:04;5.90;99.90
46898;DHT22;32646;50.958;6.258;2022-11-21T03:12:31;5.90;99.90
46898;DHT22;32646;50.958;6.258;2022-11-21T03:14:57;5.80;99.90
46898;DHT22;32646;50.958;6.258;2022-11-21T03:17:24;5.80;99.90
46898;DHT22;32646;50.958;6.258;2022-11-21T03:19:50;5.80;99.90
46898;DHT22;32646;50.958;6.258;2022-11-21T03:22:17;5.80;99.90
46898;DHT22;32646;50.958;6.258;2022-11-21T03:24:43;5.70;99.90
46898;DHT22;32646;50.958;6.258;2022-11-21T03:27:10;5.60;99.90
46898;DHT22;32646;50.958;6.258;2022-11-21T03:29:36;5.60;99.90
46898;DHT22;32646;50.958;6.258;2022-11-21T03:32:03;5.60;99.90
46898;DHT22;32646;50.958;6.258;2022-11-21T03:34:30;5.60;99.90
46898;DHT22;32646;50.958;6.258;2022-11-21T03:36:56;5.50;99.90
46898;DHT22;32646;50.958;6.258;2022-11-21T03:39:23;5.60;99.90
46898;DHT22;32646;50.958;6.258;2022-11-21T03:41:49;5.60;99.90
46898;DHT22;32646;50.958;6.258;2022-11-21T03:44:16;5.50;99.90
46898;DHT22;32646;50.958;6.258;2022-11-21T03:46:44;5.50;99.90
46898;DHT22;32646;50.958;6.258;2022-11-21T03:49:11;5.50;99.90
46898;DHT22;32646;50.958;6.258;2022-11-21T03:51:38;5.50;99.90
46898;DHT22;32646;50.958;6.258;2022-11-21T03:54:05;5.50;99.90
46898;DHT22;32646;50.958;6.258;2022-11-21T03:56:32;5.50;99.90
46898;DHT22;32646;50.958;6.258;2022-11-21T03:58:59;5.50;99.90
46898;DHT22;32646;50.958;6.258;2022-11-21T04:01:27;5.50;99.90
46898;DHT22;32646;50.958;6.258;2022-11-21T04:04:00;5.40;99.90
46898;DHT22;32646;50.958;6.258;2022-11-21T04:06:27;5.40;99.90
46898;DHT22;32646;50.958;6.258;2022-11-21T04:08:53;5.30;99.90
46898;DHT22;32646;50.958;6.258;2022-11-21T04:11:20;5.30;99.90
46898;DHT22;32646;50.958;6.258;2022-11-21T04:13:46;5.30;99.90
46898;DHT22;32646;50.958;6.258;2022-11-21T04:16:13;5.30;99.90
46898;DHT22;32646;50.958;6.258;2022-11-21T04:18:39;5.30;99.90
46898;DHT22;32646;50.958;6.258;2022-11-21T04:21:07;5.20;99.90
46898;DHT22;32646;50.958;6.258;2022-11-21T04:23:34;5.20;99.90
46898;DHT22;32646;50.958;6.258;2022-11-21T04:26:01;5.20;99.90
46898;DHT22;32646;50.958;6.258;2022-11-21T04:28:27;5.20;99.90
46898;DHT22;32646;50.958;6.258;2022-11-21T04:30:54;5.30;99.90
46898;DHT22;32646;50.958;6.258;2022-11-21T04:33:21;5.20;99.90
46898;DHT22;32646;50.958;6.258;2022-11-21T04:35:48;5.20;99.90
46898;DHT22;32646;50.958;6.258;2022-11-21T04:38:14;5.20;99.90
46898;DHT22;32646;50.958;6.258;2022-11-21T04:40:42;5.20;99.90
46898;DHT22;32646;50.958;6.258;2022-11-21T04:43:09;5.10;99.90
46898;DHT22;32646;50.958;6.258;2022-11-21T04:45:35;5.00;99.90
46898;DHT22;32646;50.958;6.258;2022-11-21T04:48:02;5.10;99.90
46898;DHT22;32646;50.958;6.258;2022-11-21T04:50:28;5.20;99.90
46898;DHT22;32646;50.958;6.258;2022-11-21T04:52:55;5.20;99.90
46898;DHT22;32646;50.958;6.258;2022-11-21T04:55:24;5.20;99.90
46898;DHT22;32646;50.958;6.258;2022-11-21T04:57:52;5.20;99.90
46898;DHT22;32646;50.958;6.258;2022-11-21T05:00:19;5.30;99.90
46898;DHT22;32646;50.958;6.258;2022-11-21T05:02:50;5.20;99.90
46898;DHT22;32646;50.958;6.258;2022-11-21T05:05:16;5.20;99.90
46898;DHT22;32646;50.958;6.258;2022-11-21T05:07:43;5.20;99.90
46898;DHT22;32646;50.958;6.258;2022-11-21T05:10:09;5.20;99.90
46898;DHT22;32646;50.958;6.258;2022-11-21T05:12:36;5.20;99.90
46898;DHT22;32646;50.958;6.258;2022-11-21T05:15:03;5.10;99.90
46898;DHT22;32646;50.958;6.258;2022-11-21T05:17:29;5.10;99.90
46898;DHT22;32646;50.958;6.258;2022-11-21T05:19:56;5.00;99.90
46898;DHT22;32646;50.958;6.258;2022-11-21T05:22:22;5.00;99.90
46898;DHT22;32646;50.958;6.258;2022-11-21T05:24:49;4.90;99.90
46898;DHT22;32646;50.958;6.258;2022-11-21T05:27:15;4.80;99.90
46898;DHT22;32646;50.958;6.258;2022-11-21T05:29:42;4.80;99.90
46898;DHT22;32646;50.958;6.258;2022-11-21T05:32:09;4.70;99.90
46898;DHT22;32646;50.958;6.258;2022-11-21T05:34:35;4.80;99.90
46898;DHT22;32646;50.958;6.258;2022-11-21T05:37:02;4.80;99.90
46898;DHT22;32646;50.958;6.258;2022-11-21T05:39:28;4.80;99.90
46898;DHT22;32646;50.958;6.258;2022-11-21T05:41:55;4.90;99.90
46898;DHT22;32646;50.958;6.258;2022-11-21T05:44:28;5.00;99.90
46898;DHT22;32646;50.958;6.258;2022-11-21T05:46:55;5.00;99.90
46898;DHT22;32646;50.958;6.258;2022-11-21T05:49:21;5.10;99.90
46898;DHT22;32646;50.958;6.258;2022-11-21T05:51:48;5.10;99.90
46898;DHT22;32646;50.958;6.258;2022-11-21T05:54:15;5.10;99.90
46898;DHT22;32646;50.958;6.258;2022-11-21T05:56:41;5.10;99.90
46898;DHT22;32646;50.958;6.258;2022-11-21T05:59:09;5.20;99.90
46898;DHT22;32646;50.958;6.258;2022-11-21T06:01:36;5.20;99.90
46898;DHT22;32646;50.958;6.258;2022-11-21T06:04:03;5.20;99.90
46898;DHT22;32646;50.958;6.258;2022-11-21T06:06:30;5.20;99.90
46898;DHT22;32646;50.958;6.258;2022-11-21T06:08:56;5.20;99.90
46898;DHT22;32646;50.958;6.258;2022-11-21T06:11:23;5.30;99.90
46898;DHT22;32646;50.958;6.258;2022-11-21T06:13:51;5.40;99.90
46898;DHT22;32646;50.958;6.258;2022-11-21T06:16:18;5.50;99.90
46898;DHT22;32646;50.958;6.258;2022-11-21T06:18:47;5.50;99.90
46898;DHT22;32646;50.958;6.258;2022-11-21T06:21:17;5.50;99.90
46898;DHT22;32646;50.958;6.258;2022-11-21T06:23:45;5.60;99.90
46898;DHT22;32646;50.958;6.258;2022-11-21T06:26:14;5.60;99.90
46898;DHT22;32646;50.958;6.258;2022-11-21T06:28:42;5.70;99.90
46898;DHT22;32646;50.958;6.258;2022-11-21T06:31:11;5.70;99.90
46898;DHT22;32646;50.958;6.258;2022-11-21T06:33:39;5.70;99.90
46898;DHT22;32646;50.958;6.258;2022-11-21T06:36:07;5.70;99.90
46898;DHT22;32646;50.958;6.258;2022-11-21T06:38:34;5.80;99.90
46898;DHT22;32646;50.958;6.258;2022-11-21T06:41:05;5.80;99.90
46898;DHT22;32646;50.958;6.258;2022-11-21T06:43:32;5.80;99.90
46898;DHT22;32646;50.958;6.258;2022-11-21T06:45:59;5.90;99.90
46898;DHT22;32646;50.958;6.258;2022-11-21T06:48:25;5.90;99.90
46898;DHT22;32646;50.958;6.258;2022-11-21T06:50:51;5.80;99.90
46898;DHT22;32646;50.958;6.258;2022-11-21T06:53:18;5.80;99.90
46898;DHT22;32646;50.958;6.258;2022-11-21T06:55:44;5.80;99.90
46898;DHT22;32646;50.958;6.258;2022-11-21T06:58:11;5.70;99.90
46898;DHT22;32646;50.958;6.258;2022-11-21T07:00:37;5.70;99.90
46898;DHT22;32646;50.958;6.258;2022-11-21T07:03:04;5.70;99.90
46898;DHT22;32646;50.958;6.258;2022-11-21T07:05:31;5.70;99.90
46898;DHT22;32646;50.958;6.258;2022-11-21T07:07:59;5.70;99.90
46898;DHT22;32646;50.958;6.258;2022-11-21T07:10:26;5.70;99.90
46898;DHT22;32646;50.958;6.258;2022-11-21T07:12:57;5.60;99.90
46898;DHT22;32646;50.958;6.258;2022-11-21T07:15:24;5.60;99.90
46898;DHT22;32646;50.958;6.258;2022-11-21T07:17:50;5.70;99.90
46898;DHT22;32646;50.958;6.258;2022-11-21T07:20:17;5.70;99.90
46898;DHT22;32646;50.958;6.258;2022-11-21T07:22:43;5.60;99.90
46898;DHT22;32646;50.958;6.258;2022-11-21T07:25:10;5.60;99.90
46898;DHT22;32646;50.958;6.258;2022-11-21T07:27:36;5.70;99.90
46898;DHT22;32646;50.958;6.258;2022-11-21T07:30:03;5.60;99.90
46898;DHT22;32646;50.958;6.258;2022-11-21T07:32:30;5.70;99.90
46898;DHT22;32646;50.958;6.258;2022-11-21T07:34:56;5.70;99.90
46898;DHT22;32646;50.958;6.258;2022-11-21T07:37:23;5.70;99.90
46898;DHT22;32646;50.958;6.258;2022-11-21T07:39:50;5.60;99.90
46898;DHT22;32646;50.958;6.258;2022-11-21T07:42:16;5.60;99.90
46898;DHT22;32646;50.958;6.258;2022-11-21T07:44:43;5.60;99.90
46898;DHT22;32646;50.958;6.258;2022-11-21T07:47:09;5.60;99.90
46898;DHT22;32646;50.958;6.258;2022-11-21T07:49:36;5.60;99.90
46898;DHT22;32646;50.958;6.258;2022-11-21T07:52:02;5.60;99.90
46898;DHT22;32646;50.958;6.258;2022-11-21T07:54:29;5.70;99.90
46898;DHT22;32646;50.958;6.258;2022-11-21T07:56:55;5.80;99.90
46898;DHT22;32646;50.958;6.258;2022-11-21T07:59:22;5.80;99.90
46898;DHT22;32646;50.958;6.258;2022-11-21T08:01:50;5.80;99.90
46898;DHT22;32646;50.958;6.258;2022-11-21T08:04:16;5.80;99.90
46898;DHT22;32646;50.958;6.258;2022-11-21T08:06:43;5.80;99.90
46898;DHT22;32646;50.958;6.258;2022-11-21T08:09:09;5.80;99.90
46898;DHT22;32646;50.958;6.258;2022-11-21T08:11:36;5.80;99.90
46898;DHT22;32646;50.958;6.258;2022-11-21T08:14:02;5.80;99.90
46898;DHT22;32646;50.958;6.258;2022-11-21T08:16:29;5.90;99.90
46898;DHT22;32646;50.958;6.258;2022-11-21T08:18:56;5.90;99.90
46898;DHT22;32646;50.958;6.258;2022-11-21T08:21:22;5.90;99.90
46898;DHT22;32646;50.958;6.258;2022-11-21T08:23:49;5.90;99.90
46898;DHT22;32646;50.958;6.258;2022-11-21T08:26:16;6.00;99.90
46898;DHT22;32646;50.958;6.258;2022-11-21T08:28:42;6.10;99.90
46898;DHT22;32646;50.958;6.258;2022-11-21T08:31:09;6.30;99.90
46898;DHT22;32646;50.958;6.258;2022-11-21T08:33:36;6.30;99.90
46898;DHT22;32646;50.958;6.258;2022-11-21T08:36:06;6.30;99.90
46898;DHT22;32646;50.958;6.258;2022-11-21T08:38:33;6.50;99.90
46898;DHT22;32646;50.958;6.258;2022-11-21T08:40:59;6.90;99.90
46898;DHT22;32646;50.958;6.258;2022-11-21T08:43:26;7.40;99.90
46898;DHT22;32646;50.958;6.258;2022-11-21T08:45:53;7.60;99.90
46898;DHT22;32646;50.958;6.258;2022-11-21T08:48:20;7.90;99.90
46898;DHT22;32646;50.958;6.258;2022-11-21T08:50:46;8.10;99.90
46898;DHT22;32646;50.958;6.258;2022-11-21T08:53:13;8.60;99.90
46898;DHT22;32646;50.958;6.258;2022-11-21T08:55:39;8.60;99.90
46898;DHT22;32646;50.958;6.258;2022-11-21T08:58:06;8.60;99.90
46898;DHT22;32646;50.958;6.258;2022-11-21T09:00:32;8.50;99.90
46898;DHT22;32646;50.958;6.258;2022-11-21T09:03:03;8.60;99.90
46898;DHT22;32646;50.958;6.258;2022-11-21T09:05:30;8.50;99.90
46898;DHT22;32646;50.958;6.258;2022-11-21T09:07:57;8.50;99.90
46898;DHT22;32646;50.958;6.258;2022-11-21T09:10:27;8.60;99.90
46898;DHT22;32646;50.958;6.258;2022-11-21T09:12:57;8.70;99.90
46898;DHT22;32646;50.958;6.258;2022-11-21T09:15:24;8.40;99.90
46898;DHT22;32646;50.958;6.258;2022-11-21T09:17:51;8.10;99.90
46898;DHT22;32646;50.958;6.258;2022-11-21T09:20:17;7.80;99.90
46898;DHT22;32646;50.958;6.258;2022-11-21T09:22:44;8.00;99.90
46898;DHT22;32646;50.958;6.258;2022-11-21T09:25:10;8.20;99.90
46898;DHT22;32646;50.958;6.258;2022-11-21T09:27:37;8.60;99.90
46898;DHT22;32646;50.958;6.258;2022-11-21T09:30:04;8.60;99.90
46898;DHT22;32646;50.958;6.258;2022-11-21T09:32:30;8.90;99.90
46898;DHT22;32646;50.958;6.258;2022-11-21T09:34:57;8.80;99.90
46898;DHT22;32646;50.958;6.258;2022-11-21T09:37:23;8.60;99.90
46898;DHT22;32646;50.958;6.258;2022-11-21T09:39:50;8.70;99.90
46898;DHT22;32646;50.958;6.258;2022-11-21T09:45:22;9.20;99.90
46898;DHT22;32646;50.958;6.258;2022-11-21T09:47:51;9.50;99.90
46898;DHT22;32646;50.958;6.258;2022-11-21T09:50:25;9.60;99.90
46898;DHT22;32646;50.958;6.258;2022-11-21T09:55:35;9.20;99.90
46898;DHT22;32646;50.958;6.258;2022-11-21T10:00:47;9.70;99.90
46898;DHT22;32646;50.958;6.258;2022-11-21T10:03:15;9.80;99.90
46898;DHT22;32646;50.958;6.258;2022-11-21T10:05:52;10.10;99.90
46898;DHT22;32646;50.958;6.258;2022-11-21T10:19:52;10.70;99.90
46898;DHT22;32646;50.958;6.258;2022-11-21T10:25:12;10.60;99.90
46898;DHT22;32646;50.958;6.258;2022-11-21T10:27:45;10.90;99.90
46898;DHT22;32646;50.958;6.258;2022-11-21T10:30:18;10.70;99.90
46898;DHT22;32646;50.958;6.258;2022-11-21T10:33:10;10.70;99.90
46898;DHT22;32646;50.958;6.258;2022-11-21T10:35:40;10.70;99.90
46898;DHT22;32646;50.958;6.258;2022-11-21T10:38:13;10.90;99.90
46898;DHT22;32646;50.958;6.258;2022-11-21T10:40:48;11.30;99.90
46898;DHT22;32646;50.958;6.258;2022-11-21T10:45:44;10.80;99.90
46898;DHT22;32646;50.958;6.258;2022-11-21T10:48:11;11.20;99.90
46898;DHT22;32646;50.958;6.258;2022-11-21T10:50:59;11.50;99.90
46898;DHT22;32646;50.958;6.258;2022-11-21T10:53:29;11.40;99.90
46898;DHT22;32646;50.958;6.258;2022-11-21T10:56:03;11.70;98.90
46898;DHT22;32646;50.958;6.258;2022-11-21T10:58:54;11.70;99.60
46898;DHT22;32646;50.958;6.258;2022-11-21T11:01:28;12.00;99.10
46898;DHT22;32646;50.958;6.258;2022-11-21T11:06:57;12.00;98.40
46898;DHT22;32646;50.958;6.258;2022-11-21T11:09:30;11.60;98.60
46898;DHT22;32646;50.958;6.258;2022-11-21T11:12:20;11.70;98.20
46898;DHT22;32646;50.958;6.258;2022-11-21T11:14:55;11.00;97.70
46898;DHT22;32646;50.958;6.258;2022-11-21T11:17:30;11.10;98.80
46898;DHT22;32646;50.958;6.258;2022-11-21T11:20:05;12.20;98.00
46898;DHT22;32646;50.958;6.258;2022-11-21T11:22:32;12.40;96.40
46898;DHT22;32646;50.958;6.258;2022-11-21T11:25:04;12.60;95.10
46898;DHT22;32646;50.958;6.258;2022-11-21T11:27:31;12.50;94.50
46898;DHT22;32646;50.958;6.258;2022-11-21T11:30:05;12.50;96.70
46898;DHT22;32646;50.958;6.258;2022-11-21T11:32:32;12.40;96.40
46898;DHT22;32646;50.958;6.258;2022-11-21T11:38:07;12.50;95.90
46898;DHT22;32646;50.958;6.258;2022-11-21T11:40:43;11.80;94.80
46898;DHT22;32646;50.958;6.258;2022-11-21T11:46:25;11.10;96.80
46898;DHT22;32646;50.958;6.258;2022-11-21T11:48:57;10.60;96.80
46898;DHT22;32646;50.958;6.258;2022-11-21T11:51:50;10.50;97.30
46898;DHT22;32646;50.958;6.258;2022-11-21T11:54:39;10.90;99.90
46898;DHT22;32646;50.958;6.258;2022-11-21T11:57:08;11.30;98.60
46898;DHT22;32646;50.958;6.258;2022-11-21T11:59:49;11.60;97.20
46898;DHT22;32646;50.958;6.258;2022-11-21T12:02:22;12.20;97.60
46898;DHT22;32646;50.958;6.258;2022-11-21T12:04:54;12.40;95.40
46898;DHT22;32646;50.958;6.258;2022-11-21T12:07:30;13.40;95.30
46898;DHT22;32646;50.958;6.258;2022-11-21T12:10:40;13.50;92.50
46898;DHT22;32646;50.958;6.258;2022-11-21T12:13:12;12.80;93.70
46898;DHT22;32646;50.958;6.258;2022-11-21T12:15:46;12.90;94.90
46898;DHT22;32646;50.958;6.258;2022-11-21T12:21:08;12.50;93.60
46898;DHT22;32646;50.958;6.258;2022-11-21T12:23:50;12.30;94.30
46898;DHT22;32646;50.958;6.258;2022-11-21T12:29:21;12.30;93.70
46898;DHT22;32646;50.958;6.258;2022-11-21T12:38:04;12.50;95.60
46898;DHT22;32646;50.958;6.258;2022-11-21T12:43:44;12.60;96.40
46898;DHT22;32646;50.958;6.258;2022-11-21T12:46:42;12.50;95.60
46898;DHT22;32646;50.958;6.258;2022-11-21T13:05:17;10.80;98.80
46898;DHT22;32646;50.958;6.258;2022-11-21T13:07:47;10.50;99.70
46898;DHT22;32646;50.958;6.258;2022-11-21T13:10:15;10.50;99.90
46898;DHT22;32646;50.958;6.258;2022-11-21T13:13:15;10.40;99.90
46898;DHT22;32646;50.958;6.258;2022-11-21T13:15:58;10.10;99.90
46898;DHT22;32646;50.958;6.258;2022-11-21T13:18:42;10.10;99.90
46898;DHT22;32646;50.958;6.258;2022-11-21T13:21:47;10.10;99.90
46898;DHT22;32646;50.958;6.258;2022-11-21T13:27:26;9.80;99.90
46898;DHT22;32646;50.958;6.258;2022-11-21T13:32:49;9.60;99.90
46898;DHT22;32646;50.958;6.258;2022-11-21T13:43:23;9.10;99.90
46898;DHT22;32646;50.958;6.258;2022-11-21T13:45:59;9.00;99.90
46898;DHT22;32646;50.958;6.258;2022-11-21T13:51:44;8.90;99.90
46898;DHT22;32646;50.958;6.258;2022-11-21T14:00:46;8.70;99.90
46898;DHT22;32646;50.958;6.258;2022-11-21T14:14:27;8.50;99.90
46898;DHT22;32646;50.958;6.258;2022-11-21T14:17:05;8.40;99.90
46898;DHT22;32646;50.958;6.258;2022-11-21T14:19:34;8.40;99.90
46898;DHT22;32646;50.958;6.258;2022-11-21T14:22:01;8.40;99.90
46898;DHT22;32646;50.958;6.258;2022-11-21T14:24:28;8.30;99.90
46898;DHT22;32646;50.958;6.258;2022-11-21T14:26:55;8.30;99.90
46898;DHT22;32646;50.958;6.258;2022-11-21T14:31:53;8.20;99.90
46898;DHT22;32646;50.958;6.258;2022-11-21T14:34:30;8.20;99.90
46898;DHT22;32646;50.958;6.258;2022-11-21T14:36:59;8.10;99.90
46898;DHT22;32646;50.958;6.258;2022-11-21T14:39:31;8.10;99.90
46898;DHT22;32646;50.958;6.258;2022-11-21T14:42:12;8.10;99.90
46898;DHT22;32646;50.958;6.258;2022-11-21T14:44:39;8.00;99.90
46898;DHT22;32646;50.958;6.258;2022-11-21T14:47:18;8.00;99.90
46898;DHT22;32646;50.958;6.258;2022-11-21T14:49:54;8.00;99.90
46898;DHT22;32646;50.958;6.258;2022-11-21T14:52:31;8.00;99.90
46898;DHT22;32646;50.958;6.258;2022-11-21T14:55:02;7.90;99.90
46898;DHT22;32646;50.958;6.258;2022-11-21T14:57:49;7.90;99.90
46898;DHT22;32646;50.958;6.258;2022-11-21T15:00:19;7.90;99.90
46898;DHT22;32646;50.958;6.258;2022-11-21T15:03:21;7.80;99.90
46898;DHT22;32646;50.958;6.258;2022-11-21T15:05:58;7.70;99.90
46898;DHT22;32646;50.958;6.258;2022-11-21T15:08:33;7.70;99.90
46898;DHT22;32646;50.958;6.258;2022-11-21T15:11:23;7.60;99.90
46898;DHT22;32646;50.958;6.258;2022-11-21T15:13:54;7.50;99.90
46898;DHT22;32646;50.958;6.258;2022-11-21T15:16:47;7.50;99.90
46898;DHT22;32646;50.958;6.258;2022-11-21T15:19:33;7.50;99.90
46898;DHT22;32646;50.958;6.258;2022-11-21T15:22:01;7.40;99.90
46898;DHT22;32646;50.958;6.258;2022-11-21T15:24:39;7.40;99.90
46898;DHT22;32646;50.958;6.258;2022-11-21T15:27:28;7.40;99.90
46898;DHT22;32646;50.958;6.258;2022-11-21T15:33:06;7.40;99.90
46898;DHT22;32646;50.958;6.258;2022-11-21T15:35:48;7.40;99.90
46898;DHT22;32646;50.958;6.258;2022-11-21T15:38:43;7.40;99.90
46898;DHT22;32646;50.958;6.258;2022-11-21T15:43:44;7.40;99.90
46898;DHT22;32646;50.958;6.258;2022-11-21T15:46:19;7.40;99.90
46898;DHT22;32646;50.958;6.258;2022-11-21T15:48:55;7.50;99.90
46898;DHT22;32646;50.958;6.258;2022-11-21T15:54:19;7.50;99.90
46898;DHT22;32646;50.958;6.258;2022-11-21T15:56:46;7.40;99.90
46898;DHT22;32646;50.958;6.258;2022-11-21T15:59:14;7.40;99.90
46898;DHT22;32646;50.958;6.258;2022-11-21T16:01:41;7.40;99.90
46898;DHT22;32646;50.958;6.258;2022-11-21T16:04:10;7.40;99.90
46898;DHT22;32646;50.958;6.258;2022-11-21T16:06:37;7.40;99.90
46898;DHT22;32646;50.958;6.258;2022-11-21T16:09:04;7.40;99.90
46898;DHT22;32646;50.958;6.258;2022-11-21T16:11:32;7.40;99.90
46898;DHT22;32646;50.958;6.258;2022-11-21T16:14:01;7.40;99.90
46898;DHT22;32646;50.958;6.258;2022-11-21T16:16:31;7.40;99.90
46898;DHT22;32646;50.958;6.258;2022-11-21T16:18:58;7.40;99.90
46898;DHT22;32646;50.958;6.258;2022-11-21T16:21:25;7.40;99.90
46898;DHT22;32646;50.958;6.258;2022-11-21T16:23:53;7.40;99.90
46898;DHT22;32646;50.958;6.258;2022-11-21T16:26:20;7.40;99.90
46898;DHT22;32646;50.958;6.258;2022-11-21T16:28:46;7.40;99.90
46898;DHT22;32646;50.958;6.258;2022-11-21T16:31:20;7.40;99.90
46898;DHT22;32646;50.958;6.258;2022-11-21T16:33:47;7.40;99.90
46898;DHT22;32646;50.958;6.258;2022-11-21T16:36:19;7.50;99.90
46898;DHT22;32646;50.958;6.258;2022-11-21T16:38:46;7.40;99.90
46898;DHT22;32646;50.958;6.258;2022-11-21T16:41:13;7.40;99.90
46898;DHT22;32646;50.958;6.258;2022-11-21T16:43:46;7.40;99.90
46898;DHT22;32646;50.958;6.258;2022-11-21T16:46:12;7.40;99.90
46898;DHT22;32646;50.958;6.258;2022-11-21T16:48:39;7.40;99.90
46898;DHT22;32646;50.958;6.258;2022-11-21T16:51:10;7.40;99.90
46898;DHT22;32646;50.958;6.258;2022-11-21T16:53:38;7.40;99.90
46898;DHT22;32646;50.958;6.258;2022-11-21T16:56:05;7.40;99.90
46898;DHT22;32646;50.958;6.258;2022-11-21T16:58:32;7.40;99.90
46898;DHT22;32646;50.958;6.258;2022-11-21T17:01:16;7.40;99.90
46898;DHT22;32646;50.958;6.258;2022-11-21T17:03:45;7.30;99.90
46898;DHT22;32646;50.958;6.258;2022-11-21T17:06:15;7.30;99.90
46898;DHT22;32646;50.958;6.258;2022-11-21T17:08:42;7.20;99.90
46898;DHT22;32646;50.958;6.258;2022-11-21T17:11:20;7.30;99.90
46898;DHT22;32646;50.958;6.258;2022-11-21T17:13:48;7.20;99.90
46898;DHT22;32646;50.958;6.258;2022-11-21T17:16:17;7.20;99.90
46898;DHT22;32646;50.958;6.258;2022-11-21T17:18:44;7.20;99.90
46898;DHT22;32646;50.958;6.258;2022-11-21T17:21:14;7.10;99.90
46898;DHT22;32646;50.958;6.258;2022-11-21T17:23:43;7.10;99.90
46898;DHT22;32646;50.958;6.258;2022-11-21T17:26:12;7.10;99.90
46898;DHT22;32646;50.958;6.258;2022-11-21T17:28:39;7.00;99.90
46898;DHT22;32646;50.958;6.258;2022-11-21T17:31:13;7.00;99.90
46898;DHT22;32646;50.958;6.258;2022-11-21T17:33:41;7.10;99.90
46898;DHT22;32646;50.958;6.258;2022-11-21T17:36:12;7.00;99.90
46898;DHT22;32646;50.958;6.258;2022-11-21T17:38:39;7.10;99.90
46898;DHT22;32646;50.958;6.258;2022-11-21T17:41:09;7.10;99.90
46898;DHT22;32646;50.958;6.258;2022-11-21T17:43:36;7.10;99.90
46898;DHT22;32646;50.958;6.258;2022-11-21T17:46:05;7.10;99.90
46898;DHT22;32646;50.958;6.258;2022-11-21T17:48:36;7.20;99.90
46898;DHT22;32646;50.958;6.258;2022-11-21T17:51:06;7.30;99.90
46898;DHT22;32646;50.958;6.258;2022-11-21T17:53:35;7.30;99.90
46898;DHT22;32646;50.958;6.258;2022-11-21T17:56:04;7.40;99.90
46898;DHT22;32646;50.958;6.258;2022-11-21T17:58:31;7.40;99.90
46898;DHT22;32646;50.958;6.258;2022-11-21T18:01:03;7.50;99.90
46898;DHT22;32646;50.958;6.258;2022-11-21T18:03:30;7.50;99.90
46898;DHT22;32646;50.958;6.258;2022-11-21T18:06:03;7.40;99.90